sensor_id;sensor_type;location;lat;lon;timestamp;P1;durP1;ratioP1;P2;durP2;ratioP2
15841;SDS011;8021;48.022;11.812;2022-09-13T00:01:17;0.30;;;0.30;;
15841;SDS011;8021;48.022;11.812;2022-09-13T00:03:46;0.47;;;0.47;;
15841;SDS011;8021;48.022;11.812;2022-09-13T00:06:14;0.30;;;0.30;;
15841;SDS011;8021;48.022;11.812;2022-09-13T00:08:42;0.30;;;0.30;;
15841;SDS011;8021;48.022;11.812;2022-09-13T00:11:13;0.40;;;0.40;;
15841;SDS011;8021;48.022;11.812;2022-09-13T00:13:41;0.40;;;0.40;;
15841;SDS011;8021;48.022;11.812;2022-09-13T00:16:10;0.30;;;0.30;;
15841;SDS011;8021;48.022;11.812;2022-09-13T00:18:37;0.22;;;0.22;;
15841;SDS011;8021;48.022;11.812;2022-09-13T00:21:08;0.30;;;0.30;;
15841;SDS011;8021;48.022;11.812;2022-09-13T00:23:35;0.30;;;0.30;;
15841;SDS011;8021;48.022;11.812;2022-09-13T00:26:04;0.30;;;0.30;;
15841;SDS011;8021;48.022;11.812;2022-09-13T00:28:31;0.35;;;0.35;;
15841;SDS011;8021;48.022;11.812;2022-09-13T00:30:59;0.38;;;0.38;;
15841;SDS011;8021;48.022;11.812;2022-09-13T00:33:27;0.35;;;0.35;;
15841;SDS011;8021;48.022;11.812;2022-09-13T00:35:54;0.40;;;0.40;;
15841;SDS011;8021;48.022;11.812;2022-09-13T00:38:23;0.30;;;0.30;;
15841;SDS011;8021;48.022;11.812;2022-09-13T00:40:50;0.30;;;0.30;;
15841;SDS011;8021;48.022;11.812;2022-09-13T00:43:19;0.30;;;0.30;;
15841;SDS011;8021;48.022;11.812;2022-09-13T00:45:47;0.30;;;0.30;;
15841;SDS011;8021;48.022;11.812;2022-09-13T00:48:16;0.32;;;0.32;;
15841;SDS011;8021;48.022;11.812;2022-09-13T00:50:45;0.20;;;0.20;;
15841;SDS011;8021;48.022;11.812;2022-09-13T00:53:17;0.30;;;0.30;;
15841;SDS011;8021;48.022;11.812;2022-09-13T00:55:48;0.30;;;0.30;;
15841;SDS011;8021;48.022;11.812;2022-09-13T00:58:17;0.30;;;0.30;;
15841;SDS011;8021;48.022;11.812;2022-09-13T01:00:45;0.30;;;0.30;;
15841;SDS011;8021;48.022;11.812;2022-09-13T01:03:14;0.30;;;0.30;;
15841;SDS011;8021;48.022;11.812;2022-09-13T01:05:43;0.30;;;0.28;;
15841;SDS011;8021;48.022;11.812;2022-09-13T01:08:12;0.35;;;0.35;;
15841;SDS011;8021;48.022;11.812;2022-09-13T01:10:49;0.30;;;0.30;;
15841;SDS011;8021;48.022;11.812;2022-09-13T01:13:21;0.40;;;0.40;;
15841;SDS011;8021;48.022;11.812;2022-09-13T01:15:49;0.30;;;0.30;;
15841;SDS011;8021;48.022;11.812;2022-09-13T01:18:17;0.40;;;0.40;;
15841;SDS011;8021;48.022;11.812;2022-09-13T01:20:50;0.38;;;0.38;;
15841;SDS011;8021;48.022;11.812;2022-09-13T01:23:25;0.40;;;0.40;;
15841;SDS011;8021;48.022;11.812;2022-09-13T01:26:02;0.30;;;0.30;;
15841;SDS011;8021;48.022;11.812;2022-09-13T01:28:48;0.30;;;0.30;;
15841;SDS011;8021;48.022;11.812;2022-09-13T01:31:21;0.40;;;0.40;;
15841;SDS011;8021;48.022;11.812;2022-09-13T01:33:52;0.30;;;0.30;;
15841;SDS011;8021;48.022;11.812;2022-09-13T01:36:27;0.40;;;0.40;;
15841;SDS011;8021;48.022;11.812;2022-09-13T01:38:58;0.40;;;0.40;;
15841;SDS011;8021;48.022;11.812;2022-09-13T01:41:42;0.38;;;0.38;;
15841;SDS011;8021;48.022;11.812;2022-09-13T01:44:19;0.40;;;0.40;;
15841;SDS011;8021;48.022;11.812;2022-09-13T01:46:50;0.30;;;0.30;;
15841;SDS011;8021;48.022;11.812;2022-09-13T01:49:24;0.30;;;0.30;;
15841;SDS011;8021;48.022;11.812;2022-09-13T01:51:56;0.40;;;0.40;;
15841;SDS011;8021;48.022;11.812;2022-09-13T01:54:28;0.35;;;0.35;;
15841;SDS011;8021;48.022;11.812;2022-09-13T01:56:57;0.30;;;0.30;;
15841;SDS011;8021;48.022;11.812;2022-09-13T01:59:28;0.30;;;0.30;;
15841;SDS011;8021;48.022;11.812;2022-09-13T02:02:01;0.30;;;0.30;;
15841;SDS011;8021;48.022;11.812;2022-09-13T02:04:34;0.40;;;0.40;;
15841;SDS011;8021;48.022;11.812;2022-09-13T02:07:04;0.35;;;0.35;;
15841;SDS011;8021;48.022;11.812;2022-09-13T02:09:35;0.30;;;0.30;;
15841;SDS011;8021;48.022;11.812;2022-09-13T02:12:05;0.30;;;0.30;;
15841;SDS011;8021;48.022;11.812;2022-09-13T02:14:35;0.40;;;0.40;;
15841;SDS011;8021;48.022;11.812;2022-09-13T02:17:05;0.40;;;0.40;;
15841;SDS011;8021;48.022;11.812;2022-09-13T02:19:34;0.30;;;0.30;;
15841;SDS011;8021;48.022;11.812;2022-09-13T02:22:02;0.30;;;0.20;;
15841;SDS011;8021;48.022;11.812;2022-09-13T02:24:31;0.35;;;0.35;;
15841;SDS011;8021;48.022;11.812;2022-09-13T02:27:02;0.30;;;0.30;;
15841;SDS011;8021;48.022;11.812;2022-09-13T02:29:31;0.40;;;0.40;;
15841;SDS011;8021;48.022;11.812;2022-09-13T02:32:00;0.50;;;0.50;;
15841;SDS011;8021;48.022;11.812;2022-09-13T02:34:32;0.32;;;0.32;;
15841;SDS011;8021;48.022;11.812;2022-09-13T02:37:00;0.40;;;0.40;;
15841;SDS011;8021;48.022;11.812;2022-09-13T02:39:29;0.32;;;0.32;;
15841;SDS011;8021;48.022;11.812;2022-09-13T02:41:59;0.40;;;0.40;;
15841;SDS011;8021;48.022;11.812;2022-09-13T02:44:37;0.30;;;0.30;;
15841;SDS011;8021;48.022;11.812;2022-09-13T02:47:10;0.32;;;0.32;;
15841;SDS011;8021;48.022;11.812;2022-09-13T02:49:46;0.40;;;0.40;;
15841;SDS011;8021;48.022;11.812;2022-09-13T02:52:18;0.40;;;0.40;;
15841;SDS011;8021;48.022;11.812;2022-09-13T02:54:49;0.35;;;0.35;;
15841;SDS011;8021;48.022;11.812;2022-09-13T02:57:20;0.40;;;0.40;;
15841;SDS011;8021;48.022;11.812;2022-09-13T02:59:50;0.40;;;0.40;;
15841;SDS011;8021;48.022;11.812;2022-09-13T03:02:18;0.40;;;0.40;;
15841;SDS011;8021;48.022;11.812;2022-09-13T03:04:50;0.30;;;0.30;;
15841;SDS011;8021;48.022;11.812;2022-09-13T03:07:18;0.30;;;0.30;;
15841;SDS011;8021;48.022;11.812;2022-09-13T03:09:46;0.40;;;0.40;;
15841;SDS011;8021;48.022;11.812;2022-09-13T03:12:22;0.30;;;0.30;;
15841;SDS011;8021;48.022;11.812;2022-09-13T03:14:55;0.30;;;0.30;;
15841;SDS011;8021;48.022;11.812;2022-09-13T03:17:29;0.30;;;0.30;;
15841;SDS011;8021;48.022;11.812;2022-09-13T03:20:07;0.30;;;0.30;;
15841;SDS011;8021;48.022;11.812;2022-09-13T03:25:20;0.40;;;0.40;;
15841;SDS011;8021;48.022;11.812;2022-09-13T03:27:53;0.40;;;0.40;;
15841;SDS011;8021;48.022;11.812;2022-09-13T03:30:27;0.30;;;0.30;;
15841;SDS011;8021;48.022;11.812;2022-09-13T03:32:56;0.40;;;0.40;;
15841;SDS011;8021;48.022;11.812;2022-09-13T03:35:28;0.30;;;0.30;;
15841;SDS011;8021;48.022;11.812;2022-09-13T03:37:59;0.30;;;0.30;;
15841;SDS011;8021;48.022;11.812;2022-09-13T03:40:34;0.40;;;0.40;;
15841;SDS011;8021;48.022;11.812;2022-09-13T03:43:03;0.40;;;0.40;;
15841;SDS011;8021;48.022;11.812;2022-09-13T03:46:01;0.40;;;0.40;;
15841;SDS011;8021;48.022;11.812;2022-09-13T03:48:30;0.32;;;0.32;;
15841;SDS011;8021;48.022;11.812;2022-09-13T03:51:00;0.30;;;0.30;;
15841;SDS011;8021;48.022;11.812;2022-09-13T03:53:28;0.30;;;0.30;;
15841;SDS011;8021;48.022;11.812;2022-09-13T03:55:56;0.40;;;0.40;;
15841;SDS011;8021;48.022;11.812;2022-09-13T03:58:24;0.38;;;0.38;;
15841;SDS011;8021;48.022;11.812;2022-09-13T04:00:52;0.35;;;0.35;;
15841;SDS011;8021;48.022;11.812;2022-09-13T04:03:20;0.40;;;0.40;;
15841;SDS011;8021;48.022;11.812;2022-09-13T04:05:47;0.40;;;0.40;;
15841;SDS011;8021;48.022;11.812;2022-09-13T04:08:16;0.40;;;0.40;;
15841;SDS011;8021;48.022;11.812;2022-09-13T04:10:44;0.32;;;0.32;;
15841;SDS011;8021;48.022;11.812;2022-09-13T04:13:11;0.30;;;0.30;;
15841;SDS011;8021;48.022;11.812;2022-09-13T04:15:39;0.38;;;0.38;;
15841;SDS011;8021;48.022;11.812;2022-09-13T04:18:06;0.30;;;0.30;;
15841;SDS011;8021;48.022;11.812;2022-09-13T04:20:34;0.40;;;0.40;;
15841;SDS011;8021;48.022;11.812;2022-09-13T04:23:02;0.30;;;0.30;;
15841;SDS011;8021;48.022;11.812;2022-09-13T04:25:31;0.30;;;0.30;;
15841;SDS011;8021;48.022;11.812;2022-09-13T04:27:58;0.30;;;0.30;;
15841;SDS011;8021;48.022;11.812;2022-09-13T04:30:26;0.30;;;0.30;;
15841;SDS011;8021;48.022;11.812;2022-09-13T04:32:54;0.32;;;0.32;;
15841;SDS011;8021;48.022;11.812;2022-09-13T04:35:24;0.30;;;0.30;;
15841;SDS011;8021;48.022;11.812;2022-09-13T04:37:53;0.40;;;0.40;;
15841;SDS011;8021;48.022;11.812;2022-09-13T04:40:21;0.38;;;0.38;;
15841;SDS011;8021;48.022;11.812;2022-09-13T04:42:50;0.30;;;0.30;;
15841;SDS011;8021;48.022;11.812;2022-09-13T04:45:17;0.45;;;0.45;;
15841;SDS011;8021;48.022;11.812;2022-09-13T04:47:49;0.30;;;0.30;;
15841;SDS011;8021;48.022;11.812;2022-09-13T04:50:17;0.30;;;0.30;;
15841;SDS011;8021;48.022;11.812;2022-09-13T04:52:48;0.30;;;0.30;;
15841;SDS011;8021;48.022;11.812;2022-09-13T04:55:15;0.40;;;0.40;;
15841;SDS011;8021;48.022;11.812;2022-09-13T04:57:43;0.20;;;0.20;;
15841;SDS011;8021;48.022;11.812;2022-09-13T05:00:12;0.40;;;0.40;;
15841;SDS011;8021;48.022;11.812;2022-09-13T05:02:40;0.40;;;0.40;;
15841;SDS011;8021;48.022;11.812;2022-09-13T05:05:07;0.30;;;0.30;;
15841;SDS011;8021;48.022;11.812;2022-09-13T05:07:36;0.30;;;0.30;;
15841;SDS011;8021;48.022;11.812;2022-09-13T05:10:04;0.30;;;0.30;;
15841;SDS011;8021;48.022;11.812;2022-09-13T05:12:32;0.30;;;0.30;;
15841;SDS011;8021;48.022;11.812;2022-09-13T05:15:00;0.40;;;0.40;;
15841;SDS011;8021;48.022;11.812;2022-09-13T05:17:31;0.30;;;0.30;;
15841;SDS011;8021;48.022;11.812;2022-09-13T05:19:58;0.30;;;0.30;;
15841;SDS011;8021;48.022;11.812;2022-09-13T05:22:26;0.40;;;0.40;;
15841;SDS011;8021;48.022;11.812;2022-09-13T05:24:54;0.30;;;0.30;;
15841;SDS011;8021;48.022;11.812;2022-09-13T05:27:21;0.30;;;0.30;;
15841;SDS011;8021;48.022;11.812;2022-09-13T05:29:49;0.30;;;0.30;;
15841;SDS011;8021;48.022;11.812;2022-09-13T05:32:17;0.30;;;0.30;;
15841;SDS011;8021;48.022;11.812;2022-09-13T05:34:45;0.30;;;0.30;;
15841;SDS011;8021;48.022;11.812;2022-09-13T05:37:13;0.30;;;0.20;;
15841;SDS011;8021;48.022;11.812;2022-09-13T05:39:40;0.20;;;0.20;;
15841;SDS011;8021;48.022;11.812;2022-09-13T05:42:28;0.20;;;0.20;;
15841;SDS011;8021;48.022;11.812;2022-09-13T05:44:55;0.20;;;0.20;;
15841;SDS011;8021;48.022;11.812;2022-09-13T05:47:25;0.20;;;0.17;;
15841;SDS011;8021;48.022;11.812;2022-09-13T05:49:53;0.10;;;0.10;;
15841;SDS011;8021;48.022;11.812;2022-09-13T05:53:11;0.10;;;0.10;;
15841;SDS011;8021;48.022;11.812;2022-09-13T05:55:38;0.10;;;0.10;;
15841;SDS011;8021;48.022;11.812;2022-09-13T05:58:06;0.10;;;0.10;;
15841;SDS011;8021;48.022;11.812;2022-09-13T06:00:34;0.10;;;0.10;;
15841;SDS011;8021;48.022;11.812;2022-09-13T06:03:01;0.10;;;0.10;;
15841;SDS011;8021;48.022;11.812;2022-09-13T06:05:30;0.10;;;0.10;;
15841;SDS011;8021;48.022;11.812;2022-09-13T06:07:57;0.10;;;0.00;;
15841;SDS011;8021;48.022;11.812;2022-09-13T06:10:25;0.10;;;0.10;;
15841;SDS011;8021;48.022;11.812;2022-09-13T06:12:52;0.10;;;0.10;;
15841;SDS011;8021;48.022;11.812;2022-09-13T06:15:20;0.00;;;0.00;;
15841;SDS011;8021;48.022;11.812;2022-09-13T06:17:47;0.10;;;0.10;;
15841;SDS011;8021;48.022;11.812;2022-09-13T06:20:15;0.00;;;0.00;;
15841;SDS011;8021;48.022;11.812;2022-09-13T06:22:44;0.00;;;0.00;;
15841;SDS011;8021;48.022;11.812;2022-09-13T06:25:11;0.00;;;0.00;;
15841;SDS011;8021;48.022;11.812;2022-09-13T06:27:39;0.00;;;0.00;;
15841;SDS011;8021;48.022;11.812;2022-09-13T06:30:07;0.00;;;0.00;;
15841;SDS011;8021;48.022;11.812;2022-09-13T06:32:38;0.00;;;0.00;;
15841;SDS011;8021;48.022;11.812;2022-09-13T06:35:06;0.00;;;0.00;;
15841;SDS011;8021;48.022;11.812;2022-09-13T06:37:34;0.00;;;0.00;;
15841;SDS011;8021;48.022;11.812;2022-09-13T06:40:03;0.00;;;0.00;;
15841;SDS011;8021;48.022;11.812;2022-09-13T06:42:32;0.00;;;0.00;;
15841;SDS011;8021;48.022;11.812;2022-09-13T06:45:00;0.00;;;0.00;;
15841;SDS011;8021;48.022;11.812;2022-09-13T06:47:27;0.00;;;0.00;;
15841;SDS011;8021;48.022;11.812;2022-09-13T06:49:55;0.00;;;0.00;;
15841;SDS011;8021;48.022;11.812;2022-09-13T06:52:22;0.00;;;0.00;;
15841;SDS011;8021;48.022;11.812;2022-09-13T06:54:50;0.00;;;0.00;;
15841;SDS011;8021;48.022;11.812;2022-09-13T06:57:19;0.00;;;0.00;;
15841;SDS011;8021;48.022;11.812;2022-09-13T06:59:46;0.00;;;0.00;;
15841;SDS011;8021;48.022;11.812;2022-09-13T07:02:14;0.00;;;0.00;;
15841;SDS011;8021;48.022;11.812;2022-09-13T07:04:41;0.00;;;0.00;;
15841;SDS011;8021;48.022;11.812;2022-09-13T07:07:09;0.00;;;0.00;;
15841;SDS011;8021;48.022;11.812;2022-09-13T07:09:37;0.00;;;0.00;;
15841;SDS011;8021;48.022;11.812;2022-09-13T07:12:04;0.00;;;0.00;;
15841;SDS011;8021;48.022;11.812;2022-09-13T07:14:33;0.00;;;0.00;;
15841;SDS011;8021;48.022;11.812;2022-09-13T07:17:01;0.00;;;0.00;;
15841;SDS011;8021;48.022;11.812;2022-09-13T07:19:28;0.00;;;0.00;;
15841;SDS011;8021;48.022;11.812;2022-09-13T07:21:56;0.00;;;0.00;;
15841;SDS011;8021;48.022;11.812;2022-09-13T07:24:24;0.00;;;0.00;;
15841;SDS011;8021;48.022;11.812;2022-09-13T07:26:52;0.00;;;0.00;;
15841;SDS011;8021;48.022;11.812;2022-09-13T07:29:20;0.00;;;0.00;;
15841;SDS011;8021;48.022;11.812;2022-09-13T07:31:50;0.00;;;0.00;;
15841;SDS011;8021;48.022;11.812;2022-09-13T07:34:18;0.00;;;0.00;;
15841;SDS011;8021;48.022;11.812;2022-09-13T07:36:46;0.00;;;0.00;;
15841;SDS011;8021;48.022;11.812;2022-09-13T07:39:14;0.00;;;0.00;;
15841;SDS011;8021;48.022;11.812;2022-09-13T07:41:47;0.00;;;0.00;;
15841;SDS011;8021;48.022;11.812;2022-09-13T07:44:15;0.00;;;0.00;;
15841;SDS011;8021;48.022;11.812;2022-09-13T07:46:42;0.00;;;0.00;;
15841;SDS011;8021;48.022;11.812;2022-09-13T07:49:12;0.00;;;0.00;;
15841;SDS011;8021;48.022;11.812;2022-09-13T07:51:40;0.00;;;0.00;;
15841;SDS011;8021;48.022;11.812;2022-09-13T07:54:09;0.00;;;0.00;;
15841;SDS011;8021;48.022;11.812;2022-09-13T07:56:38;0.00;;;0.00;;
15841;SDS011;8021;48.022;11.812;2022-09-13T07:59:09;0.00;;;0.00;;
15841;SDS011;8021;48.022;11.812;2022-09-13T08:01:38;0.00;;;0.00;;
15841;SDS011;8021;48.022;11.812;2022-09-13T08:04:06;0.00;;;0.00;;
15841;SDS011;8021;48.022;11.812;2022-09-13T08:06:36;0.00;;;0.00;;
15841;SDS011;8021;48.022;11.812;2022-09-13T08:09:04;0.00;;;0.00;;
15841;SDS011;8021;48.022;11.812;2022-09-13T08:11:32;0.00;;;0.00;;
15841;SDS011;8021;48.022;11.812;2022-09-13T08:14:03;0.00;;;0.00;;
15841;SDS011;8021;48.022;11.812;2022-09-13T08:16:31;0.00;;;0.00;;
15841;SDS011;8021;48.022;11.812;2022-09-13T08:18:59;0.00;;;0.00;;
15841;SDS011;8021;48.022;11.812;2022-09-13T08:21:30;0.00;;;0.00;;
15841;SDS011;8021;48.022;11.812;2022-09-13T08:23:59;0.00;;;0.00;;
15841;SDS011;8021;48.022;11.812;2022-09-13T08:26:27;0.00;;;0.00;;
15841;SDS011;8021;48.022;11.812;2022-09-13T08:28:54;0.00;;;0.00;;
15841;SDS011;8021;48.022;11.812;2022-09-13T08:31:22;0.00;;;0.00;;
15841;SDS011;8021;48.022;11.812;2022-09-13T08:33:49;0.00;;;0.00;;
15841;SDS011;8021;48.022;11.812;2022-09-13T08:36:18;0.00;;;0.00;;
15841;SDS011;8021;48.022;11.812;2022-09-13T08:38:46;0.00;;;0.00;;
15841;SDS011;8021;48.022;11.812;2022-09-13T08:41:46;0.00;;;0.00;;
15841;SDS011;8021;48.022;11.812;2022-09-13T08:44:15;0.00;;;0.00;;
15841;SDS011;8021;48.022;11.812;2022-09-13T08:46:49;0.00;;;0.00;;
15841;SDS011;8021;48.022;11.812;2022-09-13T08:49:18;0.00;;;0.00;;
15841;SDS011;8021;48.022;11.812;2022-09-13T08:51:48;0.00;;;0.00;;
15841;SDS011;8021;48.022;11.812;2022-09-13T08:54:17;0.00;;;0.00;;
15841;SDS011;8021;48.022;11.812;2022-09-13T08:56:50;0.00;;;0.00;;
15841;SDS011;8021;48.022;11.812;2022-09-13T08:59:23;0.00;;;0.00;;
15841;SDS011;8021;48.022;11.812;2022-09-13T09:01:54;0.00;;;0.00;;
15841;SDS011;8021;48.022;11.812;2022-09-13T09:04:29;0.00;;;0.00;;
15841;SDS011;8021;48.022;11.812;2022-09-13T09:07:01;0.00;;;0.00;;
15841;SDS011;8021;48.022;11.812;2022-09-13T09:09:31;0.00;;;0.00;;
15841;SDS011;8021;48.022;11.812;2022-09-13T09:12:03;0.00;;;0.00;;
15841;SDS011;8021;48.022;11.812;2022-09-13T09:14:36;0.00;;;0.00;;
15841;SDS011;8021;48.022;11.812;2022-09-13T09:17:05;0.00;;;0.00;;
15841;SDS011;8021;48.022;11.812;2022-09-13T09:19:38;0.00;;;0.00;;
15841;SDS011;8021;48.022;11.812;2022-09-13T09:22:10;0.00;;;0.00;;
15841;SDS011;8021;48.022;11.812;2022-09-13T09:24:39;0.00;;;0.00;;
15841;SDS011;8021;48.022;11.812;2022-09-13T09:27:12;0.00;;;0.00;;
15841;SDS011;8021;48.022;11.812;2022-09-13T09:29:40;0.00;;;0.00;;
15841;SDS011;8021;48.022;11.812;2022-09-13T09:32:14;0.10;;;0.00;;
15841;SDS011;8021;48.022;11.812;2022-09-13T09:34:47;0.00;;;0.00;;
15841;SDS011;8021;48.022;11.812;2022-09-13T09:37:19;0.00;;;0.00;;
15841;SDS011;8021;48.022;11.812;2022-09-13T09:39:47;0.00;;;0.00;;
15841;SDS011;8021;48.022;11.812;2022-09-13T09:42:18;0.08;;;0.00;;
15841;SDS011;8021;48.022;11.812;2022-09-13T09:44:47;0.10;;;0.10;;
15841;SDS011;8021;48.022;11.812;2022-09-13T09:47:17;0.03;;;0.03;;
15841;SDS011;8021;48.022;11.812;2022-09-13T09:49:46;0.10;;;0.10;;
15841;SDS011;8021;48.022;11.812;2022-09-13T09:52:34;0.00;;;0.00;;
15841;SDS011;8021;48.022;11.812;2022-09-13T09:55:09;0.00;;;0.00;;
15841;SDS011;8021;48.022;11.812;2022-09-13T09:57:53;0.10;;;0.10;;
15841;SDS011;8021;48.022;11.812;2022-09-13T10:00:21;0.10;;;0.00;;
15841;SDS011;8021;48.022;11.812;2022-09-13T10:02:50;0.00;;;0.00;;
15841;SDS011;8021;48.022;11.812;2022-09-13T10:05:19;0.10;;;0.10;;
15841;SDS011;8021;48.022;11.812;2022-09-13T10:07:54;0.00;;;0.00;;
15841;SDS011;8021;48.022;11.812;2022-09-13T10:10:23;0.03;;;0.00;;
15841;SDS011;8021;48.022;11.812;2022-09-13T10:12:53;0.10;;;0.10;;
15841;SDS011;8021;48.022;11.812;2022-09-13T10:15:23;0.10;;;0.08;;
15841;SDS011;8021;48.022;11.812;2022-09-13T10:18:02;0.00;;;0.00;;
15841;SDS011;8021;48.022;11.812;2022-09-13T10:20:30;0.10;;;0.10;;
15841;SDS011;8021;48.022;11.812;2022-09-13T10:23:10;0.10;;;0.03;;
15841;SDS011;8021;48.022;11.812;2022-09-13T10:25:38;0.10;;;0.03;;
15841;SDS011;8021;48.022;11.812;2022-09-13T10:28:14;0.00;;;0.00;;
15841;SDS011;8021;48.022;11.812;2022-09-13T10:30:44;0.10;;;0.10;;
15841;SDS011;8021;48.022;11.812;2022-09-13T10:33:18;0.10;;;0.10;;
15841;SDS011;8021;48.022;11.812;2022-09-13T10:35:49;0.00;;;0.00;;
15841;SDS011;8021;48.022;11.812;2022-09-13T10:38:19;0.10;;;0.10;;
15841;SDS011;8021;48.022;11.812;2022-09-13T10:40:50;0.00;;;0.00;;
15841;SDS011;8021;48.022;11.812;2022-09-13T10:43:19;0.00;;;0.00;;
15841;SDS011;8021;48.022;11.812;2022-09-13T10:45:48;0.00;;;0.00;;
15841;SDS011;8021;48.022;11.812;2022-09-13T10:48:16;0.00;;;0.00;;
15841;SDS011;8021;48.022;11.812;2022-09-13T10:50:58;0.10;;;0.10;;
15841;SDS011;8021;48.022;11.812;2022-09-13T10:53:30;0.10;;;0.10;;
15841;SDS011;8021;48.022;11.812;2022-09-13T10:55:58;0.10;;;0.10;;
15841;SDS011;8021;48.022;11.812;2022-09-13T10:58:29;0.00;;;0.00;;
15841;SDS011;8021;48.022;11.812;2022-09-13T11:01:03;0.00;;;0.00;;
15841;SDS011;8021;48.022;11.812;2022-09-13T11:03:42;0.10;;;0.10;;
15841;SDS011;8021;48.022;11.812;2022-09-13T11:06:13;0.00;;;0.00;;
15841;SDS011;8021;48.022;11.812;2022-09-13T11:08:46;0.00;;;0.00;;
15841;SDS011;8021;48.022;11.812;2022-09-13T11:11:19;0.10;;;0.05;;
15841;SDS011;8021;48.022;11.812;2022-09-13T11:13:57;0.10;;;0.10;;
15841;SDS011;8021;48.022;11.812;2022-09-13T11:16:31;0.00;;;0.00;;
15841;SDS011;8021;48.022;11.812;2022-09-13T11:19:05;0.00;;;0.00;;
15841;SDS011;8021;48.022;11.812;2022-09-13T11:21:38;0.10;;;0.10;;
15841;SDS011;8021;48.022;11.812;2022-09-13T11:24:12;0.00;;;0.00;;
15841;SDS011;8021;48.022;11.812;2022-09-13T11:26:45;0.10;;;0.10;;
15841;SDS011;8021;48.022;11.812;2022-09-13T11:29:24;0.00;;;0.00;;
15841;SDS011;8021;48.022;11.812;2022-09-13T11:31:56;0.00;;;0.00;;
15841;SDS011;8021;48.022;11.812;2022-09-13T11:34:29;0.00;;;0.00;;
15841;SDS011;8021;48.022;11.812;2022-09-13T11:37:07;0.00;;;0.00;;
15841;SDS011;8021;48.022;11.812;2022-09-13T11:39:37;0.00;;;0.00;;
15841;SDS011;8021;48.022;11.812;2022-09-13T11:42:10;0.00;;;0.00;;
15841;SDS011;8021;48.022;11.812;2022-09-13T11:44:49;0.08;;;0.08;;
15841;SDS011;8021;48.022;11.812;2022-09-13T11:47:21;0.00;;;0.00;;
15841;SDS011;8021;48.022;11.812;2022-09-13T11:49:58;0.00;;;0.00;;
15841;SDS011;8021;48.022;11.812;2022-09-13T11:52:32;0.00;;;0.00;;
15841;SDS011;8021;48.022;11.812;2022-09-13T11:55:02;0.00;;;0.00;;
15841;SDS011;8021;48.022;11.812;2022-09-13T11:57:34;0.00;;;0.00;;
15841;SDS011;8021;48.022;11.812;2022-09-13T12:00:05;0.00;;;0.00;;
15841;SDS011;8021;48.022;11.812;2022-09-13T12:02:36;0.00;;;0.00;;
15841;SDS011;8021;48.022;11.812;2022-09-13T12:05:06;0.00;;;0.00;;
15841;SDS011;8021;48.022;11.812;2022-09-13T12:07:48;0.00;;;0.00;;
15841;SDS011;8021;48.022;11.812;2022-09-13T12:10:19;0.00;;;0.00;;
15841;SDS011;8021;48.022;11.812;2022-09-13T12:12:48;0.10;;;0.00;;
15841;SDS011;8021;48.022;11.812;2022-09-13T12:15:20;0.00;;;0.00;;
15841;SDS011;8021;48.022;11.812;2022-09-13T12:17:49;0.00;;;0.00;;
15841;SDS011;8021;48.022;11.812;2022-09-13T12:20:19;0.00;;;0.00;;
15841;SDS011;8021;48.022;11.812;2022-09-13T12:22:49;0.00;;;0.00;;
15841;SDS011;8021;48.022;11.812;2022-09-13T12:25:20;0.00;;;0.00;;
15841;SDS011;8021;48.022;11.812;2022-09-13T12:27:50;0.00;;;0.00;;
15841;SDS011;8021;48.022;11.812;2022-09-13T12:30:21;0.00;;;0.00;;
15841;SDS011;8021;48.022;11.812;2022-09-13T12:32:49;0.00;;;0.00;;
15841;SDS011;8021;48.022;11.812;2022-09-13T12:35:25;0.00;;;0.00;;
15841;SDS011;8021;48.022;11.812;2022-09-13T12:38:03;0.00;;;0.00;;
15841;SDS011;8021;48.022;11.812;2022-09-13T12:40:33;0.00;;;0.00;;
15841;SDS011;8021;48.022;11.812;2022-09-13T12:43:07;0.03;;;0.00;;
15841;SDS011;8021;48.022;11.812;2022-09-13T12:48:31;0.00;;;0.00;;
15841;SDS011;8021;48.022;11.812;2022-09-13T12:51:07;0.10;;;0.10;;
15841;SDS011;8021;48.022;11.812;2022-09-13T12:53:43;0.03;;;0.00;;
15841;SDS011;8021;48.022;11.812;2022-09-13T12:56:30;0.00;;;0.00;;
15841;SDS011;8021;48.022;11.812;2022-09-13T12:59:13;0.10;;;0.00;;
15841;SDS011;8021;48.022;11.812;2022-09-13T13:01:46;0.00;;;0.00;;
15841;SDS011;8021;48.022;11.812;2022-09-13T13:04:18;0.08;;;0.00;;
15841;SDS011;8021;48.022;11.812;2022-09-13T13:06:47;0.03;;;0.00;;
15841;SDS011;8021;48.022;11.812;2022-09-13T13:09:21;0.00;;;0.00;;
15841;SDS011;8021;48.022;11.812;2022-09-13T13:11:54;0.03;;;0.03;;
15841;SDS011;8021;48.022;11.812;2022-09-13T13:19:52;0.10;;;0.10;;
15841;SDS011;8021;48.022;11.812;2022-09-13T13:25:29;0.00;;;0.00;;
15841;SDS011;8021;48.022;11.812;2022-09-13T13:27:57;0.00;;;0.00;;
15841;SDS011;8021;48.022;11.812;2022-09-13T13:30:38;0.03;;;0.00;;
15841;SDS011;8021;48.022;11.812;2022-09-13T13:35:53;0.10;;;0.00;;
15841;SDS011;8021;48.022;11.812;2022-09-13T13:46:46;0.00;;;0.00;;
15841;SDS011;8021;48.022;11.812;2022-09-13T13:57:26;0.10;;;0.00;;
15841;SDS011;8021;48.022;11.812;2022-09-13T13:59:55;0.10;;;0.10;;
15841;SDS011;8021;48.022;11.812;2022-09-13T14:02:25;0.10;;;0.08;;
15841;SDS011;8021;48.022;11.812;2022-09-13T14:05:05;0.10;;;0.10;;
15841;SDS011;8021;48.022;11.812;2022-09-13T14:07:49;0.10;;;0.00;;
15841;SDS011;8021;48.022;11.812;2022-09-13T14:10:23;0.10;;;0.00;;
15841;SDS011;8021;48.022;11.812;2022-09-13T14:13:00;0.10;;;0.03;;
15841;SDS011;8021;48.022;11.812;2022-09-13T14:15:36;0.10;;;0.10;;
15841;SDS011;8021;48.022;11.812;2022-09-13T14:18:11;0.00;;;0.00;;
15841;SDS011;8021;48.022;11.812;2022-09-13T14:21:01;0.10;;;0.10;;
15841;SDS011;8021;48.022;11.812;2022-09-13T14:23:30;0.00;;;0.00;;
15841;SDS011;8021;48.022;11.812;2022-09-13T14:25:58;0.10;;;0.10;;
15841;SDS011;8021;48.022;11.812;2022-09-13T14:28:27;0.00;;;0.00;;
15841;SDS011;8021;48.022;11.812;2022-09-13T14:30:56;0.10;;;0.00;;
15841;SDS011;8021;48.022;11.812;2022-09-13T14:33:25;0.00;;;0.00;;
15841;SDS011;8021;48.022;11.812;2022-09-13T14:35:58;0.10;;;0.10;;
15841;SDS011;8021;48.022;11.812;2022-09-13T14:41:21;0.10;;;0.10;;
15841;SDS011;8021;48.022;11.812;2022-09-13T14:44:07;0.00;;;0.00;;
15841;SDS011;8021;48.022;11.812;2022-09-13T14:46:50;0.10;;;0.00;;
15841;SDS011;8021;48.022;11.812;2022-09-13T14:49:20;0.00;;;0.00;;
15841;SDS011;8021;48.022;11.812;2022-09-13T14:51:50;0.10;;;0.03;;
15841;SDS011;8021;48.022;11.812;2022-09-13T14:54:18;0.00;;;0.00;;
15841;SDS011;8021;48.022;11.812;2022-09-13T14:56:47;0.10;;;0.00;;
15841;SDS011;8021;48.022;11.812;2022-09-13T14:59:19;0.10;;;0.10;;
15841;SDS011;8021;48.022;11.812;2022-09-13T15:01:50;0.00;;;0.00;;
15841;SDS011;8021;48.022;11.812;2022-09-13T15:04:18;0.00;;;0.00;;
15841;SDS011;8021;48.022;11.812;2022-09-13T15:06:47;0.00;;;0.00;;
15841;SDS011;8021;48.022;11.812;2022-09-13T15:12:26;0.00;;;0.00;;
15841;SDS011;8021;48.022;11.812;2022-09-13T15:17:52;0.00;;;0.00;;
15841;SDS011;8021;48.022;11.812;2022-09-13T15:20:20;0.00;;;0.00;;
15841;SDS011;8021;48.022;11.812;2022-09-13T15:22:48;0.10;;;0.10;;
15841;SDS011;8021;48.022;11.812;2022-09-13T15:25:19;0.00;;;0.00;;
15841;SDS011;8021;48.022;11.812;2022-09-13T15:27:47;0.05;;;0.00;;
15841;SDS011;8021;48.022;11.812;2022-09-13T15:30:18;0.03;;;0.00;;
15841;SDS011;8021;48.022;11.812;2022-09-13T15:32:46;0.00;;;0.00;;
15841;SDS011;8021;48.022;11.812;2022-09-13T15:35:16;0.00;;;0.00;;
15841;SDS011;8021;48.022;11.812;2022-09-13T15:37:44;0.10;;;0.10;;
15841;SDS011;8021;48.022;11.812;2022-09-13T15:40:16;0.00;;;0.00;;
15841;SDS011;8021;48.022;11.812;2022-09-13T15:42:45;0.10;;;0.10;;
15841;SDS011;8021;48.022;11.812;2022-09-13T15:45:13;0.10;;;0.10;;
15841;SDS011;8021;48.022;11.812;2022-09-13T15:50:36;0.00;;;0.00;;
15841;SDS011;8021;48.022;11.812;2022-09-13T15:53:04;0.00;;;0.00;;
15841;SDS011;8021;48.022;11.812;2022-09-13T15:55:36;0.10;;;0.10;;